Time;durP1;ratioP1;P1;durP2;ratioP2;P2;SDS_P1;SDS_P2;PMS_P1;PMS_P2;Temp;Humidity;BMP_temperature;BMP_pressure;BME280_temperature;BME280_humidity;BME280_pressure;Samples;Min_cycle;Max_cycle;Signal;HPM_P1;HPM_P2
2021/06/14 00:00:12;;;;;;;10.18;3.58;;;13.70;99.90;;;;;;4990878;28;20125;-92
2021/06/14 00:02:43;;;;;;;5.93;2.85;;;13.70;99.90;;;;;;4993552;28;20054;-91
2021/06/14 00:05:15;;;;;;;7.40;2.90;;;13.70;99.90;;;;;;5006600;28;20137;-91
2021/06/14 00:07:44;;;;;;;5.93;3.25;;;13.70;99.90;;;;;;5000271;28;20057;-91
2021/06/14 00:10:13;;;;;;;7.68;3.10;;;13.60;99.90;;;;;;5011822;28;20220;-90
2021/06/14 00:12:44;;;;;;;4.78;2.83;;;13.40;99.90;;;;;;5004936;28;20050;-91
2021/06/14 00:15:13;;;;;;;5.00;2.80;;;13.30;99.90;;;;;;5005552;28;20050;-91
2021/06/14 00:17:41;;;;;;;5.50;3.25;;;13.20;99.90;;;;;;4994795;28;20124;-91
2021/06/14 00:20:10;;;;;;;3.95;2.97;;;13.20;99.90;;;;;;4982871;28;20476;-91
2021/06/14 00:22:41;;;;;;;5.70;2.72;;;13.10;99.90;;;;;;5010578;28;20050;-91
2021/06/14 00:25:09;;;;;;;5.30;3.35;;;13.10;99.90;;;;;;5006825;28;20056;-92
2021/06/14 00:27:36;;;;;;;5.80;3.00;;;12.90;99.90;;;;;;5007108;28;20056;-90
2021/06/14 00:30:07;;;;;;;4.65;3.42;;;12.80;99.90;;;;;;4989088;28;20049;-92
2021/06/14 00:32:34;;;;;;;6.35;3.25;;;12.60;99.90;;;;;;4978152;28;20046;-90
2021/06/14 00:35:03;;;;;;;6.78;3.67;;;12.50;99.90;;;;;;4992004;28;20053;-92
2021/06/14 00:37:33;;;;;;;7.05;4.18;;;12.40;99.90;;;;;;4989522;28;20132;-91
2021/06/14 00:40:02;;;;;;;8.32;4.03;;;12.40;99.90;;;;;;4994648;28;20054;-90
2021/06/14 00:42:30;;;;;;;6.72;3.85;;;12.60;99.90;;;;;;5011269;28;20140;-89
2021/06/14 00:44:57;;;;;;;9.20;3.55;;;12.50;99.90;;;;;;5005120;28;20329;-90
2021/06/14 00:47:24;;;;;;;6.22;3.63;;;12.50;99.90;;;;;;4981081;28;20064;-90
2021/06/14 00:49:53;;;;;;;8.77;3.65;;;12.40;99.90;;;;;;5011352;28;20535;-88
2021/06/14 00:52:20;;;;;;;5.93;3.80;;;12.20;99.90;;;;;;5011376;28;20046;-90
2021/06/14 00:54:47;;;;;;;8.52;3.90;;;12.10;99.90;;;;;;5011162;28;20048;-90
2021/06/14 00:57:14;;;;;;;8.73;3.72;;;12.00;99.90;;;;;;5011120;28;20106;-90
2021/06/14 00:59:43;;;;;;;4.97;3.65;;;11.90;99.90;;;;;;4995521;28;20056;-91
2021/06/14 01:02:10;;;;;;;8.25;4.85;;;11.80;99.90;;;;;;4985738;28;20046;-91
2021/06/14 01:04:42;;;;;;;6.28;4.55;;;11.70;99.90;;;;;;5001285;28;20050;-91
2021/06/14 01:07:11;;;;;;;12.40;4.68;;;11.60;99.90;;;;;;4977357;28;20050;-90
2021/06/14 01:09:40;;;;;;;4.97;3.50;;;11.50;99.90;;;;;;4991745;28;20050;-90
2021/06/14 01:12:15;;;;;;;8.05;4.30;;;11.40;99.90;;;;;;4997974;28;20355;-92
2021/06/14 01:15:00;;;;;;;10.52;4.82;;;11.40;99.90;;;;;;4999571;28;20152;-91
2021/06/14 01:18:04;;;;;;;8.27;4.55;;;11.30;99.90;;;;;;4994914;28;20531;-91
2021/06/14 01:20:54;;;;;;;8.68;4.30;;;11.30;99.90;;;;;;4997005;28;20042;-90
2021/06/14 01:23:40;;;;;;;7.40;4.35;;;11.20;99.90;;;;;;5004747;28;20057;-92
2021/06/14 01:26:08;;;;;;;9.07;3.97;;;11.20;99.90;;;;;;4987172;28;20109;-90
2021/06/14 01:28:36;;;;;;;5.80;4.53;;;11.20;99.90;;;;;;5011123;28;20148;-89
2021/06/14 01:31:04;;;;;;;11.55;4.72;;;11.20;99.90;;;;;;4991329;28;20463;-91
2021/06/14 01:33:34;;;;;;;6.65;4.88;;;11.30;99.90;;;;;;5002718;28;20372;-90
2021/06/14 01:36:14;;;;;;;6.40;4.60;;;11.20;99.90;;;;;;4975314;28;20042;-90
2021/06/14 01:38:46;;;;;;;8.65;4.88;;;11.20;99.90;;;;;;5004192;28;20048;-90
2021/06/14 01:41:15;;;;;;;9.68;4.90;;;11.20;99.90;;;;;;5004995;28;20630;-90
2021/06/14 01:43:45;;;;;;;7.43;4.78;;;11.10;99.90;;;;;;5002618;28;20073;-91
2021/06/14 01:46:18;;;;;;;13.50;5.22;;;11.10;99.90;;;;;;5010248;28;20451;-88
2021/06/14 01:48:45;;;;;;;11.40;4.88;;;11.00;99.90;;;;;;5014447;28;20118;-91
2021/06/14 01:51:15;;;;;;;8.68;5.53;;;10.90;99.90;;;;;;4999516;28;20038;-91
2021/06/14 01:54:02;;;;;;;9.82;5.03;;;10.80;99.90;;;;;;4986312;28;20511;-92
2021/06/14 01:56:32;;;;;;;7.82;4.75;;;10.70;99.90;;;;;;5011774;28;20049;-92
2021/06/14 01:59:02;;;;;;;11.95;5.82;;;10.70;99.90;;;;;;5014628;28;20240;-90
2021/06/14 02:01:30;;;;;;;8.85;5.45;;;10.70;99.90;;;;;;4998135;28;20129;-89
2021/06/14 02:03:59;;;;;;;9.20;5.15;;;10.70;99.90;;;;;;5006511;28;20050;-89
2021/06/14 02:06:29;;;;;;;6.45;4.75;;;10.80;99.90;;;;;;4990268;28;20058;-90
2021/06/14 02:09:07;;;;;;;7.32;4.70;;;10.90;99.90;;;;;;4984577;28;20141;-91
2021/06/14 02:11:39;;;;;;;7.88;4.63;;;11.00;99.90;;;;;;4980315;28;20114;-89
2021/06/14 02:14:07;;;;;;;6.70;4.80;;;11.10;99.90;;;;;;5009524;28;20055;-92
2021/06/14 02:16:38;;;;;;;9.02;5.07;;;11.10;99.90;;;;;;4986014;28;20050;-90
2021/06/14 02:19:06;;;;;;;7.97;5.25;;;11.00;99.90;;;;;;4988164;28;20050;-91
2021/06/14 02:21:34;;;;;;;8.43;5.25;;;10.90;99.90;;;;;;5007399;28;20750;-90
2021/06/14 02:24:01;;;;;;;11.45;5.40;;;10.80;99.90;;;;;;4977384;28;20144;-90
2021/06/14 02:26:28;;;;;;;8.55;5.80;;;10.70;99.90;;;;;;4977886;28;20060;-89
2021/06/14 02:28:55;;;;;;;9.88;5.70;;;10.60;99.90;;;;;;4995573;28;20072;-90
2021/06/14 02:31:22;;;;;;;9.00;4.88;;;10.60;99.90;;;;;;5003015;28;20046;-90
2021/06/14 02:33:51;;;;;;;8.32;5.47;;;10.60;99.90;;;;;;4994102;28;20045;-91
2021/06/14 02:36:20;;;;;;;8.57;5.63;;;10.60;99.90;;;;;;5013638;28;20129;-91
2021/06/14 02:38:48;;;;;;;8.80;5.75;;;10.50;99.90;;;;;;4999924;28;20042;-90
2021/06/14 02:41:16;;;;;;;9.52;5.57;;;10.50;99.90;;;;;;5013644;28;20089;-91
2021/06/14 02:43:44;;;;;;;11.73;6.45;;;10.40;99.90;;;;;;5013993;28;20064;-91
2021/06/14 02:46:13;;;;;;;10.05;5.35;;;10.30;99.90;;;;;;5007414;28;20077;-90
2021/06/14 02:48:43;;;;;;;12.05;6.45;;;10.30;99.90;;;;;;4993956;28;20054;-89
2021/06/14 02:51:13;;;;;;;13.13;5.68;;;10.40;99.90;;;;;;5000237;28;20054;-89
2021/06/14 02:53:42;;;;;;;8.02;5.72;;;10.40;99.90;;;;;;5013568;28;20042;-89
2021/06/14 02:56:11;;;;;;;8.88;6.57;;;10.40;99.90;;;;;;4991567;28;20072;-91
2021/06/14 02:58:41;;;;;;;10.05;6.00;;;10.40;99.90;;;;;;5002011;28;20050;-90
2021/06/14 03:01:10;;;;;;;12.15;5.90;;;10.30;99.90;;;;;;5000021;28;20141;-90
2021/06/14 03:03:45;;;;;;;9.73;5.78;;;10.30;99.90;;;;;;5014014;28;20133;-89
2021/06/14 03:06:15;;;;;;;12.85;6.75;;;10.20;99.90;;;;;;5014592;28;20145;-91
2021/06/14 03:08:44;;;;;;;8.15;6.35;;;10.20;99.90;;;;;;5003204;28;20057;-89
2021/06/14 03:11:11;;;;;;;9.75;6.40;;;10.20;99.90;;;;;;4996499;28;20185;-89
2021/06/14 03:13:44;;;;;;;13.80;7.22;;;10.20;99.90;;;;;;5013060;28;20081;-89
2021/06/14 03:16:15;;;;;;;9.25;6.53;;;10.10;99.90;;;;;;5012165;28;20092;-90
2021/06/14 03:18:44;;;;;;;13.25;6.70;;;10.10;99.90;;;;;;4993988;28;20138;-91
2021/06/14 03:21:11;;;;;;;9.57;6.55;;;10.00;99.90;;;;;;4991377;28;20140;-92
2021/06/14 03:23:38;;;;;;;7.65;6.50;;;10.00;99.90;;;;;;4998061;28;20463;-91
2021/06/14 03:26:11;;;;;;;14.93;6.88;;;9.90;99.90;;;;;;4991459;28;20057;-90
2021/06/14 03:28:46;;;;;;;11.57;7.10;;;9.80;99.90;;;;;;5010233;28;20049;-91
2021/06/14 03:31:15;;;;;;;8.73;6.65;;;9.80;99.90;;;;;;4994256;28;20061;-92
2021/06/14 03:33:47;;;;;;;8.27;6.60;;;9.80;99.90;;;;;;4993213;28;20053;-89
2021/06/14 03:36:18;;;;;;;10.80;7.10;;;9.80;99.90;;;;;;5002435;28;20060;-90
2021/06/14 03:38:51;;;;;;;10.30;6.95;;;9.90;99.90;;;;;;4999754;28;20133;-90
2021/06/14 03:41:21;;;;;;;10.00;6.72;;;9.90;99.90;;;;;;5012847;28;20138;-90
2021/06/14 03:43:49;;;;;;;9.52;6.65;;;9.90;99.90;;;;;;4980223;28;20173;-89
2021/06/14 03:46:16;;;;;;;14.60;6.65;;;9.90;99.90;;;;;;4992960;28;20072;-90
2021/06/14 03:48:45;;;;;;;10.52;7.90;;;9.90;99.90;;;;;;4976305;28;20057;-90
2021/06/14 03:51:12;;;;;;;9.65;7.20;;;10.00;99.90;;;;;;4993396;28;20052;-91
2021/06/14 03:53:39;;;;;;;10.02;6.82;;;10.10;99.90;;;;;;4988041;28;20049;-91
2021/06/14 03:56:10;;;;;;;11.00;6.70;;;10.00;99.90;;;;;;4994214;28;20052;-90
2021/06/14 03:58:38;;;;;;;14.73;6.78;;;10.00;99.90;;;;;;5011050;28;20136;-89
2021/06/14 04:01:05;;;;;;;11.13;7.38;;;10.00;99.90;;;;;;5014395;28;20042;-90
2021/06/14 04:03:32;;;;;;;12.27;6.90;;;10.10;99.90;;;;;;4985214;28;20467;-91
2021/06/14 04:06:02;;;;;;;11.40;6.85;;;10.10;99.90;;;;;;4992044;28;20041;-90
2021/06/14 04:08:30;;;;;;;10.55;6.70;;;10.20;99.90;;;;;;5003646;28;20047;-91
2021/06/14 04:10:59;;;;;;;10.95;7.13;;;10.20;99.90;;;;;;4988673;28;20042;-90
2021/06/14 04:13:26;;;;;;;9.82;6.82;;;10.30;99.90;;;;;;4992735;28;20069;-90
2021/06/14 04:15:53;;;;;;;11.32;7.43;;;10.30;99.90;;;;;;4988307;28;20448;-90
2021/06/14 04:18:22;;;;;;;9.75;7.63;;;10.40;99.90;;;;;;4994520;28;20050;-90
2021/06/14 04:20:50;;;;;;;8.82;7.20;;;10.40;99.90;;;;;;5012166;28;20052;-91
2021/06/14 04:23:20;;;;;;;8.10;6.28;;;10.40;99.90;;;;;;4980325;28;20468;-90
2021/06/14 04:25:50;;;;;;;9.15;6.32;;;10.50;99.90;;;;;;4996567;28;20052;-89
2021/06/14 04:28:17;;;;;;;11.85;6.03;;;10.60;99.90;;;;;;4987906;28;20132;-89
2021/06/14 04:30:44;;;;;;;8.88;6.22;;;10.70;99.90;;;;;;4987510;28;20121;-90
2021/06/14 04:33:11;;;;;;;8.85;6.63;;;10.70;99.90;;;;;;4964212;28;20086;-90
2021/06/14 04:35:40;;;;;;;10.88;5.93;;;10.80;99.90;;;;;;5012794;28;20506;-91
2021/06/14 04:38:07;;;;;;;7.40;6.00;;;10.90;99.90;;;;;;5011887;28;20125;-90
2021/06/14 04:40:36;;;;;;;9.48;6.18;;;11.00;99.90;;;;;;5009661;28;20061;-90
2021/06/14 04:43:03;;;;;;;9.10;5.80;;;11.10;99.90;;;;;;5002736;28;20050;-90
2021/06/14 04:45:30;;;;;;;7.55;5.30;;;11.20;99.90;;;;;;5011841;28;20049;-91
2021/06/14 04:47:57;;;;;;;9.90;5.40;;;11.30;99.90;;;;;;4994821;28;20081;-90
2021/06/14 04:50:24;;;;;;;10.00;6.03;;;11.40;99.90;;;;;;4995020;28;20062;-92
2021/06/14 04:52:54;;;;;;;9.10;5.20;;;11.50;99.90;;;;;;4993470;28;20140;-89
2021/06/14 04:55:20;;;;;;;7.00;4.70;;;11.70;99.90;;;;;;5000265;28;20051;-91
2021/06/14 04:57:48;;;;;;;8.65;4.70;;;11.80;99.90;;;;;;4989034;28;20057;-92
2021/06/14 05:00:16;;;;;;;9.40;4.28;;;12.00;99.90;;;;;;5001904;28;20167;-91
2021/06/14 05:02:44;;;;;;;9.73;4.40;;;12.10;99.90;;;;;;4980582;28;20129;-90
2021/06/14 05:05:11;;;;;;;7.03;4.75;;;12.20;99.90;;;;;;4987425;28;20113;-92
2021/06/14 05:07:39;;;;;;;9.23;4.50;;;12.40;99.90;;;;;;4978380;28;20116;-91
2021/06/14 05:10:10;;;;;;;7.47;4.57;;;12.50;99.90;;;;;;5005213;28;20104;-90
2021/06/14 05:12:38;;;;;;;6.00;3.45;;;12.70;99.90;;;;;;4997646;28;20133;-94
2021/06/14 05:15:11;;;;;;;10.55;4.35;;;12.80;99.90;;;;;;4979331;28;20445;-91
2021/06/14 05:17:42;;;;;;;8.00;4.32;;;12.90;99.90;;;;;;4994643;28;20046;-91
2021/06/14 05:20:16;;;;;;;7.32;4.05;;;13.00;99.90;;;;;;5015264;28;20049;-93
2021/06/14 05:22:44;;;;;;;7.50;4.70;;;13.10;99.90;;;;;;4968889;28;20136;-90
2021/06/14 05:25:12;;;;;;;10.65;5.38;;;13.20;99.90;;;;;;5007164;28;20050;-90
2021/06/14 05:27:39;;;;;;;6.82;4.90;;;13.20;99.90;;;;;;5011606;28;20416;-93
2021/06/14 05:30:07;;;;;;;12.63;4.97;;;13.30;99.90;;;;;;4993883;28;20056;-92
2021/06/14 05:32:34;;;;;;;7.32;4.57;;;13.40;99.90;;;;;;4996001;28;20042;-89
2021/06/14 05:35:01;;;;;;;8.32;4.57;;;13.50;99.90;;;;;;5013890;28;20046;-92
2021/06/14 05:37:30;;;;;;;10.30;4.32;;;13.60;99.90;;;;;;4995950;28;20069;-91
2021/06/14 05:40:00;;;;;;;13.18;5.18;;;13.60;99.90;;;;;;5011514;28;20050;-91
2021/06/14 05:42:29;;;;;;;10.80;4.53;;;13.80;99.90;;;;;;5007022;28;20206;-92
2021/06/14 05:44:58;;;;;;;8.88;4.13;;;13.90;99.90;;;;;;4990575;28;20480;-91
2021/06/14 05:47:25;;;;;;;7.95;4.10;;;14.10;99.90;;;;;;4995439;28;20050;-91
2021/06/14 05:49:54;;;;;;;7.50;4.07;;;14.30;99.90;;;;;;5006002;28;20050;-92
2021/06/14 05:52:21;;;;;;;10.57;4.18;;;14.50;99.90;;;;;;4995603;28;20088;-90
2021/06/14 05:54:50;;;;;;;5.60;3.47;;;14.60;99.90;;;;;;4994730;28;20666;-92
2021/06/14 05:57:17;;;;;;;7.93;4.30;;;14.80;99.90;;;;;;4997835;28;20458;-93
2021/06/14 05:59:45;;;;;;;10.15;3.97;;;15.00;99.90;;;;;;5021617;28;20133;-92
2021/06/14 06:02:14;;;;;;;5.78;3.83;;;15.30;99.90;;;;;;5015013;28;20129;-92
2021/06/14 06:04:41;;;;;;;8.90;4.47;;;15.50;99.90;;;;;;4998538;28;20056;-91
2021/06/14 06:07:08;;;;;;;5.28;3.30;;;15.70;99.90;;;;;;4991129;28;20249;-93
2021/06/14 06:09:38;;;;;;;5.88;3.83;;;16.00;99.90;;;;;;5000653;28;20102;-93
2021/06/14 06:12:16;;;;;;;6.03;3.20;;;16.30;99.90;;;;;;4970670;28;20046;-92
2021/06/14 06:14:43;;;;;;;5.47;3.33;;;16.50;99.90;;;;;;4996712;28;20062;-92
2021/06/14 06:17:13;;;;;;;6.20;3.38;;;16.70;99.90;;;;;;4997703;28;20042;-93
2021/06/14 06:19:39;;;;;;;5.68;3.60;;;17.10;99.90;;;;;;4985862;28;20137;-92
2021/06/14 06:22:14;;;;;;;5.65;2.92;;;17.50;99.90;;;;;;5005859;28;20152;-92
2021/06/14 06:24:47;;;;;;;10.75;3.30;;;17.60;99.90;;;;;;4995327;28;20056;-92
2021/06/14 06:27:38;;;;;;;5.82;2.97;;;18.00;99.90;;;;;;5018739;28;20057;-94
2021/06/14 06:30:07;;;;;;;6.72;3.17;;;18.20;99.90;;;;;;4993528;28;20112;-92
2021/06/14 06:32:52;;;;;;;;;;;;;;;;;;;;;
2021/06/14 06:35:43;;;;;;;5.05;2.83;;;18.90;95.80;;;;;;4993283;28;20386;-90
2021/06/14 06:39:13;;;;;;;7.38;3.10;;;19.10;93.50;;;;;;5018891;28;20054;-90
2021/06/14 06:41:40;;;;;;;3.40;2.65;;;19.50;92.80;;;;;;4995462;28;20045;-92
2021/06/14 06:44:31;;;;;;;7.13;2.92;;;19.50;93.30;;;;;;4999141;28;20058;-93
2021/06/14 06:47:01;;;;;;;8.65;2.63;;;19.60;92.60;;;;;;4972046;28;20058;-92
2021/06/14 06:49:31;;;;;;;7.00;2.80;;;19.80;90.10;;;;;;5001438;28;20050;-92
2021/06/14 06:52:02;;;;;;;7.35;2.90;;;19.90;88.10;;;;;;5018420;28;20127;-94
2021/06/14 06:54:32;;;;;;;6.15;2.58;;;19.90;89.00;;;;;;5017115;28;20050;-92
2021/06/14 06:57:07;;;;;;;6.50;3.08;;;19.70;89.90;;;;;;5001027;28;20054;-94
2021/06/14 06:59:58;;;;;;;4.88;2.58;;;20.10;90.30;;;;;;4988214;28;20062;-93
2021/06/14 07:02:36;;;;;;;5.25;2.60;;;20.40;85.90;;;;;;4983313;28;20058;-94
2021/06/14 07:05:15;;;;;;;3.22;2.30;;;20.70;81.90;;;;;;4984478;28;20046;-92
2021/06/14 07:07:48;;;;;;;8.02;2.88;;;21.00;82.60;;;;;;4968194;28;20141;-92
2021/06/14 07:10:17;;;;;;;4.90;2.45;;;21.30;81.40;;;;;;4993526;28;20046;-91
2021/06/14 07:12:56;;;;;;;10.40;2.40;;;21.60;81.40;;;;;;4984737;28;20058;-91
2021/06/14 07:16:05;;;;;;;;;;;;;;;;;;;;;
2021/06/14 07:22:29;;;;;;;5.53;2.63;;;21.90;76.60;;;;;;4907678;29;19958;-93
2021/06/14 07:24:56;;;;;;;4.55;2.67;;;22.10;76.20;;;;;;4876623;29;20048;-93
2021/06/14 07:30:34;;;;;;;4.53;2.50;;;22.70;72.40;;;;;;4882604;29;20068;-93
2021/06/14 07:33:02;;;;;;;6.00;3.00;;;22.70;70.70;;;;;;4920290;29;20545;-92
2021/06/14 07:35:35;;;;;;;5.13;2.63;;;22.90;68.90;;;;;;4890552;29;20078;-93
2021/06/14 07:38:07;;;;;;;4.72;2.75;;;22.70;66.20;;;;;;4893677;29;20057;-93
2021/06/14 07:40:54;;;;;;;9.32;2.55;;;22.50;68.20;;;;;;4870215;29;20132;-91
2021/06/14 07:43:26;;;;;;;6.32;2.60;;;22.00;66.00;;;;;;4911654;29;20044;-92
2021/06/14 07:45:54;;;;;;;6.07;2.70;;;21.60;69.30;;;;;;4899871;29;20754;-92
2021/06/14 07:48:23;;;;;;;6.55;3.00;;;21.40;68.70;;;;;;4897704;29;20060;-92
2021/06/14 07:50:57;;;;;;;7.75;2.90;;;21.40;68.60;;;;;;4898648;29;20258;-92
2021/06/14 07:53:46;;;;;;;6.65;2.80;;;21.60;68.20;;;;;;4897967;29;20061;-92
2021/06/14 07:57:14;;;;;;;6.32;2.50;;;22.20;68.60;;;;;;4982386;28;20064;-93
2021/06/14 07:59:54;;;;;;;4.97;2.60;;;23.00;67.70;;;;;;4948768;28;20147;-93
2021/06/14 08:02:48;;;;;;;4.70;2.38;;;22.80;65.10;;;;;;4892186;29;20382;-93
2021/06/14 08:08:56;;;;;;;7.15;2.70;;;24.10;62.50;;;;;;4887454;29;20443;-93
2021/06/14 08:11:55;;;;;;;7.75;2.47;;;24.30;60.90;;;;;;4881257;29;20040;-92
2021/06/14 08:14:48;;;;;;;6.55;2.63;;;24.50;61.00;;;;;;4879278;29;20132;-92
2021/06/14 08:17:44;;;;;;;5.68;2.28;;;24.70;61.00;;;;;;4834420;29;20055;-94
2021/06/14 08:28:20;;;;;;;7.00;2.50;;;24.60;59.40;;;;;;4999749;28;20088;-92
2021/06/14 08:30:57;;;;;;;6.35;2.42;;;25.00;53.40;;;;;;4991803;28;20050;-91
2021/06/14 08:33:40;;;;;;;3.75;2.28;;;24.90;52.80;;;;;;5006427;28;20046;-92
2021/06/14 08:36:34;;;;;;;4.38;2.00;;;25.00;57.20;;;;;;5011503;28;20049;-94
2021/06/14 08:39:17;;;;;;;5.57;2.20;;;25.90;56.80;;;;;;4945584;29;20538;-91
2021/06/14 08:41:48;;;;;;;5.68;2.38;;;26.50;50.20;;;;;;4942526;29;20086;-92
2021/06/14 08:44:23;;;;;;;4.57;2.00;;;25.90;51.30;;;;;;4940589;29;20130;-92
2021/06/14 08:50:10;;;;;;;;;;;25.70;55.70;;;;;;4865207;29;20463;-93
2021/06/14 08:53:00;;;;;;;5.00;1.95;;;26.80;55.30;;;;;;4904274;29;19922;-93
2021/06/14 08:56:20;;;;;;;;;;;;;;;;;;;;;
2021/06/14 08:59:48;;;;;;;4.85;2.25;;;26.80;50.60;;;;;;4909810;29;20048;-91
2021/06/14 09:02:35;;;;;;;4.43;2.28;;;27.10;54.50;;;;;;4890042;29;20139;-93
2021/06/14 09:05:29;;;;;;;4.57;2.13;;;27.40;49.70;;;;;;4854256;29;20060;-93
2021/06/14 09:08:16;;;;;;;5.50;2.00;;;27.50;50.40;;;;;;4902813;29;20100;-94
2021/06/14 09:10:43;;;;;;;6.88;2.42;;;27.80;51.20;;;;;;4897969;29;20059;-94
2021/06/14 09:13:24;;;;;;;5.43;2.20;;;28.00;49.40;;;;;;4939055;29;20143;-91
2021/06/14 09:16:14;;;;;;;;;;;28.40;48.10;;;;;;4936913;29;20130;-93
2021/06/14 09:18:51;;;;;;;4.47;2.28;;;27.90;49.10;;;;;;4939212;29;19986;-93
2021/06/14 09:21:28;;;;;;;6.60;2.20;;;27.60;49.20;;;;;;4934108;29;20119;-93
2021/06/14 09:24:04;;;;;;;5.15;2.15;;;26.90;49.20;;;;;;4953443;29;20073;-89
2021/06/14 09:26:43;;;;;;;3.60;1.85;;;27.50;48.90;;;;;;4966082;28;20495;-91
2021/06/14 09:29:45;;;;;;;5.05;2.08;;;28.00;47.50;;;;;;4969967;28;20056;-93
2021/06/14 09:33:13;;;;;;;8.32;2.42;;;28.60;46.90;;;;;;4989401;28;20363;-93
2021/06/14 09:36:29;;;;;;;4.60;2.08;;;29.20;46.50;;;;;;4987142;28;20081;-93
2021/06/14 09:39:49;;;;;;;;;;;;;;;;;;;;;
2021/06/14 09:42:42;;;;;;;4.57;1.88;;;29.00;46.60;;;;;;4932085;29;20067;-93
2021/06/14 09:45:23;;;;;;;4.07;1.92;;;29.90;44.20;;;;;;4939683;29;20051;-92
2021/06/14 09:48:09;;;;;;;;;;;;;;;;;;;;;
2021/06/14 09:51:04;;;;;;;4.40;1.88;;;29.90;44.10;;;;;;4935893;29;20048;-93
2021/06/14 09:53:55;;;;;;;3.72;1.70;;;30.20;39.90;;;;;;4910087;29;20068;-93
2021/06/14 09:57:03;;;;;;;4.25;1.80;;;30.00;43.50;;;;;;4907212;29;20114;-93
2021/06/14 09:59:57;;;;;;;9.05;2.05;;;30.30;43.80;;;;;;4959689;28;20159;-90
2021/06/14 10:02:36;;;;;;;3.65;1.70;;;30.60;41.00;;;;;;5037751;28;20099;-92
2021/06/14 10:05:42;;;;;;;5.30;2.00;;;30.50;40.70;;;;;;5039722;28;20087;-91
2021/06/14 10:08:32;;;;;;;;;;;;;;;;;;;;;
2021/06/14 10:11:07;;;;;;;7.90;2.20;;;30.50;40.40;;;;;;5007662;28;20034;-93
2021/06/14 10:14:01;;;;;;;;;;;;;;;;;;;;;
2021/06/14 10:16:33;;;;;;;4.45;1.70;;;31.00;41.20;;;;;;5036261;28;20083;-92
2021/06/14 10:19:58;;;;;;;;;;;;;;;;;;;;;
2021/06/14 10:22:49;;;;;;;3.95;1.90;;;30.60;41.90;;;;;;4993722;28;20104;-92
2021/06/14 10:25:49;;;;;;;6.03;2.63;;;30.30;42.30;;;;;;5004461;28;20068;-93
2021/06/14 10:28:37;;;;;;;4.43;1.67;;;30.20;42.20;;;;;;5000044;28;20080;-91
2021/06/14 10:31:09;;;;;;;3.75;1.60;;;30.80;40.80;;;;;;5007090;28;20117;-94
2021/06/14 10:33:37;;;;;;;10.00;2.28;;;31.00;38.90;;;;;;4986953;28;20051;-92
2021/06/14 10:36:20;;;;;;;4.70;2.30;;;31.40;39.50;;;;;;5004503;28;20070;-93
2021/06/14 10:39:02;;;;;;;3.55;1.75;;;31.10;40.10;;;;;;4968968;28;20097;-93
2021/06/14 10:41:30;;;;;;;4.28;1.92;;;30.80;40.80;;;;;;5006652;28;20152;-93
2021/06/14 10:43:57;;;;;;;4.57;1.90;;;30.90;39.30;;;;;;4972593;28;20117;-93
2021/06/14 10:46:26;;;;;;;4.47;1.98;;;30.80;37.70;;;;;;4999388;28;20046;-92
2021/06/14 10:49:00;;;;;;;2.28;1.77;;;30.90;39.70;;;;;;5011117;28;20034;-92
2021/06/14 10:51:40;;;;;;;7.35;1.92;;;31.30;38.40;;;;;;5016457;28;20045;-92
2021/06/14 10:54:55;;;;;;;4.38;1.88;;;32.10;37.90;;;;;;4990707;28;20070;-93
2021/06/14 10:57:30;;;;;;;6.80;1.95;;;31.80;39.00;;;;;;4999576;28;20050;-92
2021/06/14 10:59:57;;;;;;;4.50;2.30;;;32.80;42.00;;;;;;4994503;28;20460;-93
2021/06/14 11:02:50;;;;;;;6.25;1.83;;;33.10;36.70;;;;;;5003876;28;20053;-93
2021/06/14 11:05:41;;;;;;;4.22;1.77;;;33.70;36.20;;;;;;5011020;28;20077;-92
2021/06/14 11:11:23;;;;;;;8.13;1.90;;;32.80;36.10;;;;;;5017290;28;20344;-93
2021/06/14 11:13:57;;;;;;;3.45;1.42;;;33.50;36.10;;;;;;5018780;28;20061;-93
2021/06/14 11:17:13;;;;;;;;;;;;;;;;;;;;;
2021/06/14 11:20:13;;;;;;;2.63;1.70;;;33.50;34.80;;;;;;4937874;28;20059;-92
2021/06/14 11:23:09;;;;;;;4.43;2.05;;;33.00;36.40;;;;;;5004288;28;20046;-95
2021/06/14 11:25:46;;;;;;;3.53;1.67;;;33.50;35.90;;;;;;5011321;28;20050;-92
2021/06/14 11:28:38;;;;;;;4.00;1.60;;;33.70;34.70;;;;;;5009276;28;20054;-93
2021/06/14 11:31:24;;;;;;;3.50;1.50;;;33.40;35.00;;;;;;5019788;28;20049;-92
2021/06/14 11:34:02;;;;;;;3.15;1.60;;;33.70;34.50;;;;;;5022641;28;20137;-92
2021/06/14 11:36:33;;;;;;;3.53;1.60;;;34.20;35.50;;;;;;5014285;28;20049;-93
2021/06/14 11:39:22;;;;;;;4.80;1.40;;;34.40;33.50;;;;;;5025156;28;20454;-92
2021/06/14 11:41:53;;;;;;;6.25;1.90;;;33.80;33.90;;;;;;5048775;28;20330;-95
2021/06/14 11:44:55;;;;;;;4.45;1.50;;;33.80;33.30;;;;;;5035221;28;20056;-93
2021/06/14 11:47:41;;;;;;;3.72;1.40;;;34.20;34.10;;;;;;5007878;28;20067;-93
2021/06/14 11:50:55;;;;;;;4.00;1.48;;;34.60;33.70;;;;;;5051597;23;20133;-92
2021/06/14 11:57:56;;;;;;;8.02;1.80;;;34.60;35.00;;;;;;4872823;29;20059;-93
2021/06/14 12:00:45;;;;;;;;;;;;;;;;;;;;;
2021/06/14 12:03:53;;;;;;;5.30;1.80;;;35.70;36.10;;;;;;4978733;28;20047;-92
2021/06/14 12:06:52;;;;;;;4.15;1.80;;;35.70;32.40;;;;;;4965253;28;20043;-94
2021/06/14 12:09:58;;;;;;;;;;;;;;;;;;;;;
2021/06/14 12:12:46;;;;;;;5.47;1.73;;;35.40;33.40;;;;;;4858618;29;20443;-93
2021/06/14 12:15:33;;;;;;;2.85;1.60;;;36.10;34.60;;;;;;4887954;29;20080;-94
2021/06/14 12:21:40;;;;;;;3.58;1.63;;;36.00;32.10;;;;;;5220809;23;20483;-91
2021/06/14 12:24:25;;;;;;;7.05;1.65;;;36.00;31.80;;;;;;4989758;28;20097;-93
2021/06/14 12:27:21;;;;;;;;;;;;;;;;;;;;;
2021/06/14 12:30:17;;;;;;;5.30;1.58;;;35.20;33.20;;;;;;5001992;28;20414;-93
2021/06/14 12:33:31;;;;;;;5.15;1.70;;;35.00;32.10;;;;;;4968566;28;20734;-92
2021/06/14 12:39:21;;;;;;;3.42;1.50;;;34.40;34.10;;;;;;4911478;29;20120;-93
2021/06/14 12:42:18;;;;;;;4.03;1.60;;;34.60;36.00;;;;;;4903217;29;20136;-93
2021/06/14 12:44:56;;;;;;;2.45;1.50;;;35.70;30.50;;;;;;4915776;29;20520;-93
2021/06/14 12:47:29;;;;;;;3.50;1.50;;;35.60;29.50;;;;;;4920774;29;20111;-92
2021/06/14 12:50:27;;;;;;;4.85;1.80;;;35.20;31.70;;;;;;4915973;29;20063;-93
2021/06/14 12:53:07;;;;;;;4.72;1.63;;;35.10;35.10;;;;;;4917308;29;20200;-93
2021/06/14 12:55:40;;;;;;;3.17;1.65;;;35.40;30.70;;;;;;4946766;28;20042;-94
2021/06/14 13:02:05;;;;;;;5.25;1.80;;;36.70;32.30;;;;;;4993930;28;20117;-91
2021/06/14 13:05:23;;;;;;;4.63;1.50;;;37.00;32.50;;;;;;5004697;28;20046;-90
2021/06/14 13:08:07;;;;;;;2.88;1.55;;;36.80;31.40;;;;;;4886317;29;20073;-91
2021/06/14 13:10:48;;;;;;;3.92;1.80;;;36.60;28.80;;;;;;4988522;28;20310;-91
2021/06/14 13:13:19;;;;;;;;;;;36.80;30.70;;;;;;4989586;28;20065;-92
2021/06/14 13:16:01;;;;;;;5.03;1.67;;;36.90;30.90;;;;;;4987738;28;19984;-92
2021/06/14 13:18:28;;;;;;;2.92;1.50;;;37.30;28.90;;;;;;5003936;28;20321;-93
2021/06/14 13:21:23;;;;;;;;;;;;;;;;;;;;;
2021/06/14 13:23:58;;;;;;;3.05;1.63;;;38.20;29.40;;;;;;4996550;28;20148;-91
2021/06/14 13:26:39;;;;;;;4.88;1.85;;;37.90;30.10;;;;;;4984493;28;20559;-91
2021/06/14 13:29:25;;;;;;;4.07;1.58;;;37.80;31.70;;;;;;4987512;28;20097;-91
2021/06/14 13:32:33;;;;;;;3.45;1.30;;;38.40;30.90;;;;;;5008282;28;20050;-91
2021/06/14 13:35:06;;;;;;;5.40;1.40;;;38.10;28.70;;;;;;4973664;28;20046;-93
2021/06/14 13:37:43;;;;;;;3.42;1.25;;;37.40;31.10;;;;;;5003049;28;20048;-93
2021/06/14 13:40:16;;;;;;;3.47;1.67;;;37.40;28.70;;;;;;4987035;28;20050;-92
2021/06/14 13:42:46;;;;;;;3.50;1.55;;;38.10;28.70;;;;;;4984825;28;20046;-91
2021/06/14 13:46:04;;;;;;;2.97;1.42;;;37.80;29.60;;;;;;4980757;28;20096;-92
2021/06/14 13:49:03;;;;;;;2.53;1.38;;;37.50;28.90;;;;;;4976667;28;20046;-92
2021/06/14 13:51:43;;;;;;;4.13;1.23;;;37.40;29.30;;;;;;4999711;28;20102;-92
2021/06/14 13:54:46;;;;;;;2.15;1.50;;;37.50;29.60;;;;;;4943583;29;20056;-92
2021/06/14 13:57:17;;;;;;;3.20;1.38;;;37.20;29.30;;;;;;4898769;29;20091;-93
2021/06/14 13:59:48;;;;;;;2.67;1.45;;;37.40;31.50;;;;;;4906327;29;20056;-91
2021/06/14 14:02:21;;;;;;;4.18;1.40;;;37.60;28.80;;;;;;4938915;29;20144;-92
2021/06/14 14:04:52;;;;;;;7.75;1.55;;;37.70;28.70;;;;;;4930820;29;20084;-92
2021/06/14 14:07:24;;;;;;;2.47;1.40;;;37.70;29.50;;;;;;4915047;29;20079;-91
2021/06/14 14:10:03;;;;;;;2.55;1.45;;;37.70;31.00;;;;;;4908976;29;20048;-91
2021/06/14 14:13:04;;;;;;;4.88;1.45;;;38.00;28.30;;;;;;4979795;28;20105;-92
2021/06/14 14:15:56;;;;;;;3.08;1.23;;;38.00;28.10;;;;;;4988894;28;20078;-91
2021/06/14 14:18:43;;;;;;;3.97;1.20;;;37.70;28.80;;;;;;4947673;28;20061;-92
2021/06/14 14:21:14;;;;;;;1.75;1.20;;;37.60;28.80;;;;;;4983896;28;20049;-91
2021/06/14 14:23:45;;;;;;;2.72;1.35;;;37.70;29.30;;;;;;5002392;28;20050;-92
2021/06/14 14:27:09;;;;;;;2.60;1.48;;;37.50;28.40;;;;;;5009555;28;20058;-93
2021/06/14 14:30:07;;;;;;;1.70;1.15;;;37.80;28.00;;;;;;4986523;28;20141;-92
2021/06/14 14:32:40;;;;;;;3.65;1.13;;;37.80;29.40;;;;;;5003680;28;20137;-91
2021/06/14 14:35:18;;;;;;;5.53;1.42;;;38.20;26.60;;;;;;4970991;28;20065;-91